createdAt,value
2023-05-16T00:00:55.526Z,100.00
2023-05-16T00:03:22.205Z,100.00
2023-05-16T00:05:48.675Z,100.00
2023-05-16T00:08:15.234Z,100.00
2023-05-16T00:10:41.721Z,100.00
2023-05-16T00:13:08.214Z,100.00
2023-05-16T00:15:34.869Z,100.00
2023-05-16T00:18:01.705Z,100.00
2023-05-16T00:20:28.863Z,100.00
2023-05-16T00:22:55.962Z,100.00
2023-05-16T00:25:23.182Z,100.00
2023-05-16T00:27:49.791Z,100.00
2023-05-16T00:30:16.338Z,100.00
2023-05-16T00:32:43.214Z,100.00
2023-05-16T00:35:11.473Z,100.00
2023-05-16T00:37:38.713Z,100.00
2023-05-16T00:40:05.880Z,100.00
2023-05-16T00:42:32.457Z,100.00
2023-05-16T00:44:59.026Z,100.00
2023-05-16T00:47:25.716Z,100.00
2023-05-16T00:49:52.564Z,100.00
2023-05-16T00:52:19.054Z,100.00
2023-05-16T00:54:45.665Z,100.00
2023-05-16T00:57:16.269Z,100.00
2023-05-16T00:59:44.586Z,100.00
2023-05-16T01:02:11.223Z,100.00
2023-05-16T01:04:37.742Z,100.00
2023-05-16T01:07:04.400Z,100.00
2023-05-16T01:09:31.640Z,100.00
2023-05-16T01:12:11.114Z,100.00
2023-05-16T01:14:56.415Z,100.00
2023-05-16T01:17:59.679Z,100.00
2023-05-16T01:20:26.093Z,100.00
2023-05-16T01:23:05.451Z,100.00
2023-05-16T01:26:05.695Z,100.00
2023-05-16T01:28:32.435Z,100.00
2023-05-16T01:30:58.974Z,100.00
2023-05-16T01:33:25.576Z,100.00
2023-05-16T01:36:04.033Z,100.00
2023-05-16T01:38:44.637Z,100.00
2023-05-16T01:41:29.569Z,100.00
2023-05-16T01:44:05.034Z,100.00
2023-05-16T01:46:37.348Z,100.00
2023-05-16T01:49:25.188Z,100.00
2023-05-16T01:51:56.014Z,100.00
2023-05-16T01:54:26.440Z,100.00
2023-05-16T01:56:55.337Z,100.00
2023-05-16T01:59:24.120Z,100.00
2023-05-16T02:01:53.954Z,100.00
2023-05-16T02:04:20.660Z,100.00
2023-05-16T02:06:47.290Z,100.00
2023-05-16T02:09:13.771Z,100.00
2023-05-16T02:11:40.186Z,100.00
2023-05-16T02:14:06.610Z,100.00
2023-05-16T02:16:34.067Z,100.00
2023-05-16T02:19:00.881Z,100.00
2023-05-16T02:21:27.345Z,100.00
2023-05-16T02:23:53.843Z,100.00
2023-05-16T02:26:20.721Z,100.00
2023-05-16T02:28:49.437Z,100.00
2023-05-16T02:31:29.352Z,100.00
2023-05-16T02:33:57.282Z,100.00
2023-05-16T02:36:24.130Z,100.00
2023-05-16T02:38:50.712Z,100.00
2023-05-16T02:41:17.161Z,100.00
2023-05-16T02:43:46.824Z,100.00
2023-05-16T02:46:25.822Z,100.00
2023-05-16T02:48:52.503Z,100.00
2023-05-16T02:51:22.026Z,100.00
2023-05-16T02:53:49.046Z,100.00
2023-05-16T02:56:15.530Z,100.00
2023-05-16T02:58:42.536Z,100.00
2023-05-16T03:01:09.846Z,100.00
2023-05-16T03:03:37.538Z,100.00
2023-05-16T03:06:04.142Z,100.00
2023-05-16T03:08:30.848Z,100.00
2023-05-16T03:10:57.223Z,100.00
2023-05-16T03:13:23.972Z,100.00
2023-05-16T03:15:50.774Z,100.00
2023-05-16T03:18:17.442Z,100.00
2023-05-16T03:20:43.923Z,100.00
2023-05-16T03:23:10.571Z,100.00
2023-05-16T03:25:37.650Z,100.00
2023-05-16T03:28:06.950Z,100.00
2023-05-16T03:30:34.323Z,100.00
2023-05-16T03:33:01.090Z,100.00
2023-05-16T03:35:34.729Z,100.00
2023-05-16T03:38:01.484Z,100.00
2023-05-16T03:40:27.990Z,100.00
2023-05-16T03:42:54.397Z,100.00
2023-05-16T03:45:20.971Z,100.00
2023-05-16T03:47:49.338Z,100.00
2023-05-16T03:50:16.495Z,100.00
2023-05-16T03:52:43.384Z,100.00
2023-05-16T03:55:10.442Z,100.00
2023-05-16T03:57:40.888Z,100.00
2023-05-16T04:00:08.643Z,100.00
2023-05-16T04:02:35.363Z,100.00
2023-05-16T04:05:01.894Z,100.00
2023-05-16T04:07:28.358Z,100.00
2023-05-16T04:09:55.776Z,100.00
2023-05-16T04:12:23.085Z,100.00
2023-05-16T04:14:49.518Z,100.00
2023-05-16T04:17:16.168Z,100.00
2023-05-16T04:19:42.724Z,100.00
2023-05-16T04:22:09.367Z,100.00
2023-05-16T04:24:35.797Z,100.00
2023-05-16T04:27:02.338Z,100.00
2023-05-16T04:29:29.166Z,100.00
2023-05-16T04:31:55.794Z,100.00
2023-05-16T04:34:23.230Z,100.00
2023-05-16T04:36:49.697Z,100.00
2023-05-16T04:39:16.240Z,100.00
2023-05-16T04:41:42.637Z,100.00
2023-05-16T04:44:11.092Z,100.00
2023-05-16T04:46:37.672Z,100.00
2023-05-16T04:49:04.618Z,100.00
2023-05-16T04:51:32.603Z,100.00
2023-05-16T04:53:59.145Z,100.00
2023-05-16T04:56:26.785Z,100.00
2023-05-16T04:58:54.590Z,100.00
2023-05-16T05:01:21.430Z,100.00
2023-05-16T05:03:48.507Z,100.00
2023-05-16T05:06:15.065Z,100.00
2023-05-16T05:08:41.732Z,100.00
2023-05-16T05:11:08.225Z,100.00
2023-05-16T05:13:34.621Z,100.00
2023-05-16T05:16:02.045Z,100.00
2023-05-16T05:18:28.767Z,100.00
2023-05-16T05:20:55.287Z,100.00
2023-05-16T05:23:21.929Z,100.00
2023-05-16T05:25:48.523Z,100.00
2023-05-16T05:28:15.040Z,100.00
2023-05-16T05:30:43.217Z,100.00
2023-05-16T05:33:11.763Z,100.00
2023-05-16T05:35:38.373Z,100.00
2023-05-16T05:38:04.822Z,100.00
2023-05-16T05:40:31.265Z,100.00
2023-05-16T05:42:57.715Z,100.00
2023-05-16T05:45:24.077Z,100.00
2023-05-16T05:47:51.085Z,100.00
2023-05-16T05:50:17.724Z,100.00
2023-05-16T05:52:44.354Z,100.00
2023-05-16T05:55:11.130Z,100.00
2023-05-16T05:57:37.768Z,100.00
2023-05-16T06:00:05.323Z,100.00
2023-05-16T06:02:31.938Z,100.00
2023-05-16T06:04:58.460Z,100.00
2023-05-16T06:07:24.929Z,100.00
2023-05-16T06:09:52.091Z,99.76
2023-05-16T06:12:18.472Z,98.32
2023-05-16T06:14:46.054Z,97.66
2023-05-16T06:17:12.606Z,97.45
2023-05-16T06:19:39.274Z,96.13
2023-05-16T06:22:05.839Z,95.59
2023-05-16T06:24:32.311Z,94.89
2023-05-16T06:26:58.714Z,94.92
2023-05-16T06:29:25.434Z,93.34
2023-05-16T06:31:52.155Z,92.93
2023-05-16T06:34:18.981Z,92.36
2023-05-16T06:36:45.508Z,92.88
2023-05-16T06:39:12.037Z,93.10
2023-05-16T06:41:38.515Z,92.12
2023-05-16T06:44:05.159Z,92.34
2023-05-16T06:46:32.720Z,92.05
2023-05-16T06:48:59.473Z,91.02
2023-05-16T06:51:25.957Z,90.50
2023-05-16T06:53:52.429Z,90.32
2023-05-16T06:56:18.956Z,90.41
2023-05-16T06:58:45.900Z,90.16
2023-05-16T07:01:12.478Z,90.98
2023-05-16T07:03:39.332Z,90.47
2023-05-16T07:06:06.002Z,90.52
2023-05-16T07:08:33.075Z,89.77
2023-05-16T07:10:59.509Z,89.67
2023-05-16T07:13:26.076Z,89.00
2023-05-16T07:15:52.690Z,88.98
2023-05-16T07:18:19.299Z,89.02
2023-05-16T07:20:46.100Z,87.68
2023-05-16T07:23:12.547Z,87.43
2023-05-16T07:25:39.111Z,87.07
2023-05-16T07:28:05.750Z,86.48
2023-05-16T07:30:32.392Z,86.35
2023-05-16T07:33:01.822Z,86.13
2023-05-16T07:35:28.550Z,84.07
2023-05-16T07:37:55.460Z,84.39
2023-05-16T07:40:25.848Z,84.89
2023-05-16T07:42:52.365Z,84.24
2023-05-16T07:45:19.204Z,82.46
2023-05-16T07:47:46.353Z,82.68
2023-05-16T07:50:12.958Z,81.58
2023-05-16T07:52:39.467Z,81.22
2023-05-16T07:55:06.456Z,80.90
2023-05-16T07:57:33.047Z,80.71
2023-05-16T07:59:59.650Z,80.20
2023-05-16T08:02:30.567Z,80.34
2023-05-16T08:05:00.383Z,80.86
2023-05-16T08:07:26.996Z,82.23
2023-05-16T08:09:53.692Z,83.28
2023-05-16T08:12:20.333Z,82.71
2023-05-16T08:14:47.119Z,81.56
2023-05-16T08:17:16.439Z,82.54
2023-05-16T08:19:43.177Z,83.17
2023-05-16T08:22:09.962Z,83.43
2023-05-16T08:24:36.512Z,83.17
2023-05-16T08:27:02.995Z,84.20
2023-05-16T08:29:30.229Z,83.37
2023-05-16T08:31:56.804Z,83.03
2023-05-16T08:34:23.463Z,81.96
2023-05-16T08:36:50.076Z,81.33
2023-05-16T08:39:16.755Z,79.06
2023-05-16T08:41:43.666Z,77.61
2023-05-16T08:44:12.457Z,75.20
2023-05-16T08:46:41.524Z,76.16
2023-05-16T08:49:09.247Z,77.16
2023-05-16T08:51:37.694Z,76.20
2023-05-16T08:54:09.181Z,76.32
2023-05-16T08:56:37.038Z,71.13
2023-05-16T08:59:04.616Z,72.13
2023-05-16T09:01:34.444Z,68.53
2023-05-16T09:04:01.467Z,69.22
2023-05-16T09:06:28.171Z,68.84
2023-05-16T09:08:55.338Z,69.45
2023-05-16T09:11:22.036Z,69.92
2023-05-16T09:13:51.273Z,69.03
2023-05-16T09:16:19.584Z,69.66
2023-05-16T09:19:01.884Z,67.39
2023-05-16T09:21:31.854Z,65.48
2023-05-16T09:24:08.640Z,64.55
2023-05-16T09:26:37.299Z,65.57
2023-05-16T09:29:12.312Z,62.13
2023-05-16T09:31:39.085Z,61.32
2023-05-16T09:34:11.124Z,60.90
2023-05-16T09:36:37.700Z,58.31
2023-05-16T09:39:08.666Z,58.53
2023-05-16T09:41:36.434Z,58.11
2023-05-16T09:44:06.922Z,56.55
2023-05-16T09:46:38.116Z,58.18
2023-05-16T09:49:05.004Z,60.14
2023-05-16T09:51:32.143Z,61.30
2023-05-16T09:53:59.023Z,62.13
2023-05-16T09:56:25.434Z,62.22
2023-05-16T09:58:52.548Z,59.74
2023-05-16T10:01:19.581Z,57.70
2023-05-16T10:03:46.241Z,57.22
2023-05-16T10:06:16.583Z,56.20
2023-05-16T10:08:43.873Z,57.78
2023-05-16T10:11:11.754Z,58.68
2023-05-16T10:13:42.554Z,58.56
2023-05-16T10:16:12.507Z,58.46
2023-05-16T10:18:41.341Z,53.93
2023-05-16T10:21:15.665Z,51.71
2023-05-16T10:23:43.929Z,52.77
2023-05-16T10:26:14.850Z,54.25
2023-05-16T10:28:42.016Z,55.91
2023-05-16T10:31:11.069Z,57.66
2023-05-16T10:33:38.849Z,58.57
2023-05-16T10:36:06.009Z,57.39
2023-05-16T10:38:34.560Z,54.25
2023-05-16T10:41:01.915Z,53.59
2023-05-16T10:43:31.006Z,53.52
2023-05-16T10:45:59.884Z,54.19
2023-05-16T10:48:31.662Z,54.15
2023-05-16T10:50:58.265Z,55.13
2023-05-16T10:53:33.006Z,55.34
2023-05-16T10:55:59.407Z,54.81
2023-05-16T10:58:35.709Z,54.68
2023-05-16T11:01:27.128Z,55.03
2023-05-16T11:03:57.320Z,51.97
2023-05-16T11:06:25.572Z,50.77
2023-05-16T11:09:05.850Z,51.70
2023-05-16T11:11:53.610Z,50.67
2023-05-16T11:14:29.018Z,50.94
2023-05-16T11:17:15.404Z,50.67
2023-05-16T11:20:00.910Z,48.25
2023-05-16T11:22:32.822Z,46.76
2023-05-16T11:24:59.290Z,48.15
2023-05-16T11:27:31.177Z,49.47
2023-05-16T11:30:06.609Z,50.11
2023-05-16T11:32:41.435Z,50.54
2023-05-16T11:35:14.321Z,50.48
2023-05-16T11:37:42.864Z,51.36
2023-05-16T11:40:12.218Z,52.62
2023-05-16T11:42:50.430Z,52.90
2023-05-16T11:45:19.253Z,52.96
2023-05-16T11:47:50.613Z,52.75
2023-05-16T11:50:26.821Z,54.18
2023-05-16T11:52:56.722Z,54.05
2023-05-16T11:55:41.180Z,53.68
2023-05-16T11:58:09.478Z,54.28
2023-05-16T12:00:36.332Z,54.46
2023-05-16T12:03:05.916Z,55.74
2023-05-16T12:05:34.577Z,55.86
2023-05-16T12:08:02.826Z,56.27
2023-05-16T12:10:31.838Z,56.30
2023-05-16T12:12:58.671Z,54.90
2023-05-16T12:15:25.698Z,54.63
2023-05-16T12:17:52.801Z,53.59
2023-05-16T12:20:19.739Z,53.03
2023-05-16T12:22:46.680Z,53.80
2023-05-16T12:25:23.127Z,53.64
2023-05-16T12:27:49.976Z,55.38
2023-05-16T12:30:21.580Z,55.28
2023-05-16T12:32:53.393Z,55.26
2023-05-16T12:35:20.060Z,54.47
2023-05-16T12:37:46.674Z,53.63
2023-05-16T12:40:13.438Z,53.77
2023-05-16T12:42:39.941Z,53.55
2023-05-16T12:45:16.047Z,54.32
2023-05-16T12:47:43.000Z,54.59
2023-05-16T12:50:14.496Z,53.83
2023-05-16T12:52:52.579Z,53.82
2023-05-16T12:55:21.037Z,52.94
2023-05-16T12:57:48.787Z,52.47
2023-05-16T13:00:21.065Z,53.63
2023-05-16T13:02:48.770Z,52.91
2023-05-16T13:05:15.903Z,53.58
2023-05-16T13:07:42.674Z,53.75
2023-05-16T13:10:13.338Z,54.65
2023-05-16T13:12:41.688Z,55.51
2023-05-16T13:15:09.678Z,55.71
2023-05-16T13:17:37.356Z,55.35
2023-05-16T13:20:08.991Z,54.87
2023-05-16T13:22:45.118Z,54.80
2023-05-16T13:25:12.137Z,54.56
2023-05-16T13:27:38.709Z,55.22
2023-05-16T13:30:05.785Z,55.12
2023-05-16T13:32:32.400Z,55.96
2023-05-16T13:34:59.098Z,56.13
2023-05-16T13:37:25.788Z,56.63
2023-05-16T13:39:54.801Z,56.76
2023-05-16T13:42:21.662Z,56.37
2023-05-16T13:44:48.390Z,56.63
2023-05-16T13:47:14.911Z,56.78
2023-05-16T13:49:41.471Z,55.90
2023-05-16T13:52:08.596Z,54.97
2023-05-16T13:54:35.246Z,53.59
2023-05-16T13:57:03.430Z,53.38
2023-05-16T13:59:52.588Z,54.51
2023-05-16T14:02:16.862Z,54.67
2023-05-16T14:04:43.432Z,55.49
2023-05-16T14:07:10.003Z,54.81
2023-05-16T14:09:39.518Z,54.89
2023-05-16T14:12:07.483Z,54.99
2023-05-16T14:14:37.442Z,54.83
2023-05-16T14:17:04.317Z,54.59
2023-05-16T14:19:31.622Z,55.28
2023-05-16T14:21:58.407Z,55.46
2023-05-16T14:24:25.147Z,55.68
2023-05-16T14:26:58.159Z,55.72
2023-05-16T14:29:25.675Z,55.50
2023-05-16T14:31:52.809Z,54.85
2023-05-16T14:34:19.505Z,55.48
2023-05-16T14:36:49.050Z,55.52
2023-05-16T14:39:15.702Z,54.82
2023-05-16T14:41:42.195Z,54.26
2023-05-16T14:44:08.759Z,53.53
2023-05-16T14:46:35.488Z,52.63
2023-05-16T14:49:02.294Z,54.31
2023-05-16T14:51:28.846Z,54.29
2023-05-16T14:53:55.512Z,53.55
2023-05-16T14:56:22.730Z,53.75
2023-05-16T14:58:49.356Z,54.38
2023-05-16T15:01:16.684Z,54.21
2023-05-16T15:03:54.410Z,54.00
2023-05-16T15:06:23.491Z,52.41
2023-05-16T15:08:50.833Z,53.72
2023-05-16T15:11:17.450Z,52.81
2023-05-16T15:13:43.957Z,53.06
2023-05-16T15:16:10.726Z,52.93
2023-05-16T15:18:37.537Z,53.16
2023-05-16T15:21:04.354Z,53.23
2023-05-16T15:23:30.958Z,53.11
2023-05-16T15:25:57.656Z,52.72
2023-05-16T15:28:24.415Z,53.26
2023-05-16T15:30:51.560Z,52.50
2023-05-16T15:33:18.149Z,51.64
2023-05-16T15:35:44.830Z,52.61
2023-05-16T15:38:11.672Z,52.74
2023-05-16T15:40:38.240Z,52.57
2023-05-16T15:43:04.817Z,52.64
2023-05-16T15:45:32.578Z,51.78
2023-05-16T15:47:59.439Z,52.04
2023-05-16T15:50:26.486Z,52.64
2023-05-16T15:52:53.181Z,52.90
2023-05-16T15:55:19.907Z,52.92
2023-05-16T15:57:46.508Z,53.54
2023-05-16T16:00:13.722Z,54.01
2023-05-16T16:02:41.466Z,54.52
2023-05-16T16:05:08.510Z,55.23
2023-05-16T16:07:35.080Z,55.25
2023-05-16T16:10:02.025Z,55.26
2023-05-16T16:12:31.898Z,55.72
2023-05-16T16:14:58.524Z,56.22
2023-05-16T16:17:25.081Z,56.71
2023-05-16T16:19:51.839Z,56.90
2023-05-16T16:22:19.761Z,57.47
2023-05-16T16:24:47.578Z,58.03
2023-05-16T16:27:14.190Z,58.75
2023-05-16T16:29:40.783Z,60.32
2023-05-16T16:32:07.775Z,61.67
2023-05-16T16:34:34.350Z,64.10
2023-05-16T16:37:00.912Z,66.99
2023-05-16T16:39:28.934Z,68.61
2023-05-16T16:41:56.816Z,69.88
2023-05-16T16:44:23.376Z,71.42
2023-05-16T16:46:50.045Z,71.60
2023-05-16T16:49:16.603Z,72.56
2023-05-16T16:51:43.231Z,72.70
2023-05-16T16:54:19.128Z,76.99
2023-05-16T16:56:47.519Z,77.86
2023-05-16T16:59:16.260Z,72.06
2023-05-16T17:01:42.866Z,70.42
2023-05-16T17:04:09.431Z,69.82
2023-05-16T17:06:35.982Z,70.58
2023-05-16T17:09:05.019Z,70.03
2023-05-16T17:11:31.924Z,69.64
2023-05-16T17:13:59.727Z,69.77
2023-05-16T17:16:28.735Z,70.05
2023-05-16T17:18:56.240Z,69.81
2023-05-16T17:21:22.830Z,70.48
2023-05-16T17:23:52.228Z,70.48
2023-05-16T17:26:18.834Z,71.10
2023-05-16T17:28:48.921Z,71.65
2023-05-16T17:31:15.890Z,72.12
2023-05-16T17:33:42.481Z,72.06
2023-05-16T17:36:09.028Z,72.16
2023-05-16T17:38:35.592Z,71.31
2023-05-16T17:41:02.736Z,71.04
2023-05-16T17:43:30.928Z,71.00
2023-05-16T17:45:57.760Z,70.48
2023-05-16T17:48:24.553Z,69.99
2023-05-16T17:50:51.383Z,70.53
2023-05-16T17:53:18.017Z,70.15
2023-05-16T17:55:44.643Z,70.56
2023-05-16T17:58:11.181Z,70.42
2023-05-16T18:00:38.487Z,70.25
2023-05-16T18:03:06.362Z,70.86
2023-05-16T18:05:33.178Z,70.77
2023-05-16T18:07:59.792Z,70.46
2023-05-16T18:10:29.619Z,70.34
2023-05-16T18:13:03.276Z,70.40
2023-05-16T18:15:29.924Z,69.51
2023-05-16T18:17:56.847Z,68.86
2023-05-16T18:20:23.479Z,67.98
2023-05-16T18:22:52.073Z,67.97
2023-05-16T18:25:18.705Z,68.15
2023-05-16T18:27:45.344Z,68.57
2023-05-16T18:30:13.391Z,68.73
2023-05-16T18:32:40.157Z,69.15
2023-05-16T18:35:07.093Z,69.86
2023-05-16T18:37:33.897Z,70.42
2023-05-16T18:40:00.515Z,70.44
2023-05-16T18:42:27.328Z,70.79
2023-05-16T18:44:53.909Z,70.95
2023-05-16T18:47:21.020Z,71.54
2023-05-16T18:49:47.877Z,71.50
2023-05-16T18:52:14.541Z,71.62
2023-05-16T18:54:41.310Z,71.87
2023-05-16T18:57:08.061Z,71.53
2023-05-16T18:59:36.099Z,71.67
2023-05-16T19:02:02.691Z,72.48
2023-05-16T19:04:29.439Z,72.44
2023-05-16T19:06:57.974Z,72.70
2023-05-16T19:09:25.239Z,73.01
2023-05-16T19:11:51.709Z,72.99
2023-05-16T19:14:18.336Z,73.07
2023-05-16T19:16:44.802Z,73.44
2023-05-16T19:19:11.490Z,73.55
2023-05-16T19:21:39.150Z,73.97
2023-05-16T19:24:06.145Z,74.30
2023-05-16T19:26:32.714Z,74.70
2023-05-16T19:29:00.339Z,74.88
2023-05-16T19:31:27.077Z,75.07
2023-05-16T19:33:53.586Z,75.41
2023-05-16T19:36:20.157Z,75.59
2023-05-16T19:38:46.807Z,75.91
2023-05-16T19:41:13.458Z,76.20
2023-05-16T19:43:39.963Z,76.84
2023-05-16T19:46:06.464Z,76.84
2023-05-16T19:48:33.600Z,77.18
2023-05-16T19:51:00.221Z,77.25
2023-05-16T19:53:26.797Z,77.72
2023-05-16T19:55:53.452Z,78.08
2023-05-16T19:58:20.136Z,78.21
2023-05-16T20:00:47.163Z,78.35
2023-05-16T20:03:14.129Z,78.84
2023-05-16T20:05:40.913Z,78.85
2023-05-16T20:08:07.724Z,79.74
2023-05-16T20:10:35.312Z,79.98
2023-05-16T20:13:01.858Z,80.36
2023-05-16T20:15:28.572Z,80.48
2023-05-16T20:17:55.408Z,80.89
2023-05-16T20:20:22.209Z,80.74
2023-05-16T20:22:48.761Z,81.27
2023-05-16T20:25:15.366Z,82.07
2023-05-16T20:27:41.963Z,82.09
2023-05-16T20:30:09.017Z,82.20
2023-05-16T20:32:36.120Z,82.32
2023-05-16T20:35:04.308Z,82.61
2023-05-16T20:37:30.885Z,83.38
2023-05-16T20:39:57.442Z,83.25
2023-05-16T20:42:23.976Z,83.58
2023-05-16T20:44:50.713Z,83.55
2023-05-16T20:47:17.721Z,83.48
2023-05-16T20:49:44.562Z,83.58
2023-05-16T20:52:11.125Z,83.89
2023-05-16T20:54:37.751Z,84.17
2023-05-16T20:57:04.680Z,84.08
2023-05-16T20:59:32.303Z,84.45
2023-05-16T21:01:58.935Z,84.37
2023-05-16T21:04:25.690Z,85.12
2023-05-16T21:06:52.473Z,85.04
2023-05-16T21:09:19.222Z,85.20
2023-05-16T21:11:45.762Z,85.20
2023-05-16T21:14:12.414Z,85.79
2023-05-16T21:16:38.977Z,85.89
2023-05-16T21:19:05.895Z,86.61
2023-05-16T21:21:32.724Z,86.78
2023-05-16T21:23:59.386Z,86.97
2023-05-16T21:26:26.036Z,87.14
2023-05-16T21:28:55.642Z,87.43
2023-05-16T21:31:22.726Z,87.63
2023-05-16T21:33:51.943Z,88.26
2023-05-16T21:36:19.716Z,88.44
2023-05-16T21:38:46.657Z,88.64
2023-05-16T21:41:13.376Z,88.44
2023-05-16T21:43:40.328Z,88.01
2023-05-16T21:46:07.046Z,88.58
2023-05-16T21:48:34.032Z,88.74
2023-05-16T21:51:00.730Z,89.55
2023-05-16T21:53:27.281Z,89.84
2023-05-16T21:55:53.881Z,90.12
2023-05-16T21:58:20.633Z,90.59
2023-05-16T22:00:47.461Z,90.75
2023-05-16T22:03:14.234Z,91.84
2023-05-16T22:05:40.809Z,92.37
2023-05-16T22:08:08.011Z,93.70
2023-05-16T22:10:34.635Z,93.92
2023-05-16T22:13:01.236Z,94.85
2023-05-16T22:15:27.901Z,95.38
2023-05-16T22:17:54.855Z,95.74
2023-05-16T22:20:21.593Z,96.41
2023-05-16T22:22:49.229Z,96.87
2023-05-16T22:25:15.782Z,97.63
2023-05-16T22:27:42.588Z,98.18
2023-05-16T22:30:09.474Z,98.79
2023-05-16T22:32:36.077Z,99.35
2023-05-16T22:35:04.936Z,100.00
2023-05-16T22:37:31.583Z,100.00
2023-05-16T22:39:58.216Z,100.00
2023-05-16T22:42:24.866Z,100.00
2023-05-16T22:44:51.349Z,100.00
2023-05-16T22:47:17.911Z,100.00
2023-05-16T22:49:44.490Z,100.00
2023-05-16T22:52:10.960Z,100.00
2023-05-16T22:54:37.562Z,100.00
2023-05-16T22:57:04.132Z,100.00
2023-05-16T22:59:31.069Z,100.00
2023-05-16T23:01:57.550Z,100.00
2023-05-16T23:04:24.228Z,100.00
2023-05-16T23:06:50.801Z,100.00
2023-05-16T23:09:17.358Z,100.00
2023-05-16T23:11:43.853Z,100.00
2023-05-16T23:14:10.645Z,100.00
2023-05-16T23:16:37.158Z,100.00
2023-05-16T23:19:04.224Z,100.00
2023-05-16T23:21:31.627Z,100.00
2023-05-16T23:23:58.131Z,100.00
2023-05-16T23:26:25.379Z,100.00
2023-05-16T23:28:52.210Z,100.00
2023-05-16T23:31:18.749Z,100.00
2023-05-16T23:33:45.392Z,100.00
2023-05-16T23:36:12.037Z,100.00
2023-05-16T23:38:38.638Z,100.00
2023-05-16T23:41:05.301Z,100.00
2023-05-16T23:43:31.768Z,100.00
2023-05-16T23:45:58.357Z,100.00
2023-05-16T23:48:25.189Z,100.00
2023-05-16T23:50:51.778Z,100.00
2023-05-16T23:53:18.372Z,100.00
2023-05-16T23:55:44.909Z,100.00
2023-05-16T23:58:11.730Z,100.00
